Time;durP1;ratioP1;P1;durP2;ratioP2;P2;SDS_P1;SDS_P2;PMS_P1;PMS_P2;Temp;Humidity;BMP_temperature;BMP_pressure;BME280_temperature;BME280_humidity;BME280_pressure;Samples;Min_cycle;Max_cycle;Signal;HPM_P1;HPM_P2
2023/09/02 00:00:55;;;;;;;18.25;16.58;;;14.20;99.90;;;;;;5057370;28;20104;-76
2023/09/02 00:03:21;;;;;;;16.52;15.13;;;14.20;99.90;;;;;;5044657;28;20056;-75
2023/09/02 00:05:47;;;;;;;16.90;15.50;;;14.10;99.90;;;;;;5065987;28;20041;-76
2023/09/02 00:08:13;;;;;;;20.15;18.55;;;14.10;99.90;;;;;;5061838;28;20520;-74
2023/09/02 00:10:38;;;;;;;20.65;18.85;;;14.10;99.90;;;;;;5044000;28;20495;-75
2023/09/02 00:13:04;;;;;;;22.08;20.27;;;14.20;99.90;;;;;;5043203;28;20051;-75
2023/09/02 00:15:30;;;;;;;20.48;18.70;;;14.20;99.90;;;;;;5055767;28;20807;-75
2023/09/02 00:17:56;;;;;;;21.30;19.58;;;14.20;99.90;;;;;;5046548;28;20098;-75
2023/09/02 00:20:21;;;;;;;23.05;20.98;;;14.10;99.90;;;;;;5063537;28;20048;-75
2023/09/02 00:22:48;;;;;;;21.40;19.50;;;14.10;99.90;;;;;;5058821;28;20060;-76
2023/09/02 00:25:14;;;;;;;20.17;18.13;;;14.10;99.90;;;;;;5054867;28;20510;-74
2023/09/02 00:27:40;;;;;;;21.42;19.50;;;14.10;99.90;;;;;;5067232;28;20194;-75
2023/09/02 00:30:06;;;;;;;21.63;19.83;;;14.10;99.90;;;;;;5057531;28;20376;-75
2023/09/02 00:32:33;;;;;;;20.13;18.42;;;14.10;99.90;;;;;;5041799;28;20068;-75
2023/09/02 00:34:59;;;;;;;17.20;15.63;;;14.10;99.90;;;;;;5060769;28;20036;-75
2023/09/02 00:37:25;;;;;;;19.33;17.83;;;14.10;99.90;;;;;;5061139;28;20045;-75
2023/09/02 00:39:51;;;;;;;20.55;18.75;;;14.10;99.90;;;;;;5054709;28;20048;-74
2023/09/02 00:42:19;;;;;;;21.10;19.27;;;14.10;99.90;;;;;;5048785;28;20060;-75
2023/09/02 00:44:47;;;;;;;20.27;18.58;;;14.10;99.90;;;;;;5041823;28;20344;-75
2023/09/02 00:47:13;;;;;;;20.48;18.88;;;14.10;99.90;;;;;;5069199;28;20072;-75
2023/09/02 00:49:38;;;;;;;22.63;20.75;;;14.10;99.90;;;;;;5052811;28;20080;-75
2023/09/02 00:52:05;;;;;;;21.25;19.35;;;14.10;99.90;;;;;;5061446;28;20040;-75
2023/09/02 00:54:32;;;;;;;21.38;19.45;;;14.10;99.90;;;;;;5050847;28;20530;-75
2023/09/02 00:56:58;;;;;;;21.85;19.90;;;14.00;99.90;;;;;;5068172;28;20052;-75
2023/09/02 00:59:23;;;;;;;21.08;19.27;;;14.00;99.90;;;;;;5043984;28;20498;-75
2023/09/02 01:01:50;;;;;;;21.27;19.48;;;14.00;99.90;;;;;;5062031;28;20491;-75
2023/09/02 01:04:16;;;;;;;21.92;20.08;;;14.00;99.90;;;;;;5065844;28;20055;-75
2023/09/02 01:06:42;;;;;;;21.08;19.17;;;14.00;99.90;;;;;;5057014;28;20047;-75
2023/09/02 01:09:11;;;;;;;21.70;19.73;;;14.00;99.90;;;;;;5060814;28;20032;-75
2023/09/02 01:11:36;;;;;;;21.20;19.40;;;14.00;99.90;;;;;;5062346;28;20053;-75
2023/09/02 01:14:03;;;;;;;21.02;19.25;;;14.00;99.90;;;;;;5062113;28;21457;-75
2023/09/02 01:16:29;;;;;;;23.98;21.77;;;14.00;99.90;;;;;;5052840;28;20056;-75
2023/09/02 01:18:55;;;;;;;19.70;17.88;;;14.00;99.90;;;;;;5064631;28;20048;-75
2023/09/02 01:22:18;;;;;;;19.13;17.30;;;14.00;99.90;;;;;;5050422;28;20082;-75
2023/09/02 01:25:15;;;;;;;18.30;16.70;;;14.10;99.90;;;;;;5002291;28;20045;-75
2023/09/02 01:27:49;;;;;;;19.88;18.08;;;14.00;99.90;;;;;;4999364;28;20092;-75
2023/09/02 01:30:19;;;;;;;17.80;16.23;;;14.00;99.90;;;;;;5048406;28;20357;-75
2023/09/02 01:32:49;;;;;;;18.23;16.52;;;14.00;99.90;;;;;;5057746;28;20052;-75
2023/09/02 01:35:18;;;;;;;17.67;16.05;;;14.00;99.90;;;;;;5045451;28;20113;-75
2023/09/02 01:37:48;;;;;;;19.88;18.17;;;14.00;99.90;;;;;;5060406;28;20041;-75
2023/09/02 01:40:25;;;;;;;18.50;16.90;;;13.90;99.90;;;;;;5044027;28;20127;-75
2023/09/02 01:42:51;;;;;;;20.15;18.45;;;13.90;99.90;;;;;;5043635;28;20483;-75
2023/09/02 01:45:19;;;;;;;19.27;17.50;;;13.90;99.90;;;;;;5058937;28;20163;-75
2023/09/02 01:47:50;;;;;;;19.30;17.58;;;13.90;99.90;;;;;;5062291;28;20447;-75
2023/09/02 01:50:19;;;;;;;20.20;18.70;;;13.80;99.90;;;;;;5040980;28;20443;-75
2023/09/02 01:52:47;;;;;;;19.63;17.93;;;13.80;99.90;;;;;;5067442;28;20092;-75
2023/09/02 01:55:14;;;;;;;19.20;17.60;;;13.70;99.90;;;;;;5052193;28;20041;-76
2023/09/02 01:57:40;;;;;;;20.77;18.98;;;13.70;99.90;;;;;;5043077;28;20044;-75
2023/09/02 02:00:08;;;;;;;19.45;17.67;;;13.70;99.90;;;;;;5062442;28;20091;-75
2023/09/02 02:02:36;;;;;;;19.42;17.70;;;13.70;99.90;;;;;;5045387;28;20049;-75
2023/09/02 02:05:06;;;;;;;20.15;18.38;;;13.70;99.90;;;;;;5047403;28;20049;-75
2023/09/02 02:07:35;;;;;;;18.92;17.42;;;13.70;99.90;;;;;;5049397;28;20045;-75
2023/09/02 02:10:05;;;;;;;17.37;15.77;;;13.70;99.90;;;;;;5047720;28;20074;-75
2023/09/02 02:12:32;;;;;;;23.70;21.60;;;13.60;99.90;;;;;;5061493;28;20055;-75
2023/09/02 02:14:57;;;;;;;24.48;21.98;;;13.50;99.90;;;;;;5047423;28;20128;-75
2023/09/02 02:17:23;;;;;;;15.73;14.30;;;13.50;99.90;;;;;;5048783;28;20128;-75
2023/09/02 02:19:49;;;;;;;15.57;14.27;;;13.40;99.90;;;;;;5037169;28;20049;-75
2023/09/02 02:22:15;;;;;;;22.67;20.40;;;13.40;99.90;;;;;;5045548;28;20143;-75
2023/09/02 02:24:41;;;;;;;16.05;14.65;;;13.40;99.90;;;;;;5038100;28;20143;-76
2023/09/02 02:27:06;;;;;;;18.70;17.20;;;13.40;99.90;;;;;;5057678;28;20078;-75
2023/09/02 02:29:34;;;;;;;16.95;15.45;;;13.40;99.90;;;;;;5057862;28;20065;-75
2023/09/02 02:31:59;;;;;;;18.40;16.75;;;13.40;99.90;;;;;;5042146;28;20368;-75
2023/09/02 02:34:25;;;;;;;19.48;17.77;;;13.40;99.90;;;;;;5042402;28;20040;-75
2023/09/02 02:36:51;;;;;;;17.65;16.15;;;13.40;99.90;;;;;;5040956;28;20045;-75
2023/09/02 02:39:20;;;;;;;16.88;15.30;;;13.40;99.90;;;;;;5052844;28;20091;-75
2023/09/02 02:41:45;;;;;;;17.15;15.68;;;13.40;99.90;;;;;;5058525;28;20048;-75
2023/09/02 02:44:11;;;;;;;17.73;16.20;;;13.40;99.90;;;;;;5058480;28;20047;-75
2023/09/02 02:46:37;;;;;;;18.60;17.08;;;13.40;99.90;;;;;;5056734;28;20049;-76
2023/09/02 02:49:02;;;;;;;20.52;18.63;;;13.40;99.90;;;;;;5041690;28;20421;-75
2023/09/02 02:51:28;;;;;;;22.05;19.95;;;13.40;99.90;;;;;;5055936;28;20052;-76
2023/09/02 02:53:54;;;;;;;19.45;17.92;;;13.30;99.90;;;;;;5038194;28;20055;-75
2023/09/02 02:56:19;;;;;;;22.65;20.65;;;13.30;99.90;;;;;;5060352;28;20040;-75
2023/09/02 02:58:45;;;;;;;20.38;18.67;;;13.30;99.90;;;;;;5043223;28;20135;-75
2023/09/02 03:01:12;;;;;;;21.02;19.23;;;13.30;99.90;;;;;;5042171;28;20084;-75
2023/09/02 03:03:38;;;;;;;20.80;19.00;;;13.30;99.90;;;;;;5043996;28;20398;-76
2023/09/02 03:06:04;;;;;;;21.60;19.70;;;13.20;99.90;;;;;;5055020;28;20044;-76
2023/09/02 03:08:30;;;;;;;21.38;19.48;;;13.30;99.90;;;;;;5058216;28;20068;-75
2023/09/02 03:10:57;;;;;;;18.10;16.60;;;13.20;99.90;;;;;;5057370;28;20052;-75
2023/09/02 03:13:24;;;;;;;19.48;17.77;;;13.20;99.90;;;;;;5042947;28;20036;-75
2023/09/02 03:15:53;;;;;;;20.15;18.45;;;13.20;99.90;;;;;;5057808;28;20052;-76
2023/09/02 03:18:20;;;;;;;20.52;18.73;;;13.20;99.90;;;;;;5056628;28;20044;-75
2023/09/02 03:20:46;;;;;;;19.63;17.83;;;13.20;99.90;;;;;;5042340;28;20056;-75
2023/09/02 03:23:12;;;;;;;18.92;17.30;;;13.20;99.90;;;;;;5056509;28;20048;-75
2023/09/02 03:25:37;;;;;;;21.08;19.15;;;13.20;99.90;;;;;;5057043;28;20500;-75
2023/09/02 03:28:04;;;;;;;21.95;20.05;;;13.20;99.90;;;;;;5058557;28;20051;-75
2023/09/02 03:30:30;;;;;;;21.25;19.52;;;13.20;99.90;;;;;;5059589;28;20083;-75
2023/09/02 03:32:56;;;;;;;26.13;23.73;;;13.20;99.90;;;;;;5043762;28;20045;-75
2023/09/02 03:35:22;;;;;;;21.10;19.13;;;13.20;99.90;;;;;;5040165;28;20052;-76
2023/09/02 03:37:48;;;;;;;19.40;17.80;;;13.20;99.90;;;;;;5058460;28;20483;-75
2023/09/02 03:40:15;;;;;;;19.50;17.88;;;13.20;99.90;;;;;;5041150;28;20070;-75
2023/09/02 03:42:41;;;;;;;19.95;18.33;;;13.20;99.90;;;;;;5043611;28;20383;-75
2023/09/02 03:45:09;;;;;;;17.75;16.35;;;13.20;99.90;;;;;;5057568;28;20048;-75
2023/09/02 03:47:35;;;;;;;28.00;25.20;;;13.20;99.90;;;;;;5056268;28;20557;-75
2023/09/02 03:50:05;;;;;;;22.45;20.38;;;13.20;99.90;;;;;;5043512;28;20080;-76
2023/09/02 03:52:31;;;;;;;18.95;17.27;;;13.10;99.90;;;;;;5056544;28;20124;-76
2023/09/02 03:54:58;;;;;;;19.35;17.67;;;13.10;99.90;;;;;;5042198;28;20120;-76
2023/09/02 03:57:24;;;;;;;21.38;19.50;;;13.10;99.90;;;;;;5056686;28;20036;-76
2023/09/02 03:59:50;;;;;;;21.30;19.30;;;13.10;99.90;;;;;;5056939;28;20048;-76
2023/09/02 04:02:16;;;;;;;20.85;19.00;;;13.10;99.90;;;;;;5055305;28;20060;-75
2023/09/02 04:04:41;;;;;;;19.48;17.88;;;13.10;99.90;;;;;;5048428;28;20518;-76
2023/09/02 04:07:07;;;;;;;20.30;18.60;;;13.10;99.90;;;;;;5058441;28;20040;-76
2023/09/02 04:09:34;;;;;;;21.35;19.33;;;13.20;99.90;;;;;;5045899;28;20036;-76
2023/09/02 04:12:00;;;;;;;23.30;21.20;;;13.20;99.90;;;;;;5061395;28;20330;-75
2023/09/02 04:14:26;;;;;;;24.77;22.38;;;13.20;99.90;;;;;;5061953;28;20121;-75
2023/09/02 04:16:53;;;;;;;24.02;21.92;;;13.20;99.90;;;;;;5061272;28;20040;-75
2023/09/02 04:19:19;;;;;;;23.00;20.80;;;13.30;99.90;;;;;;5062128;28;20052;-75
2023/09/02 04:21:47;;;;;;;23.40;21.00;;;13.30;99.90;;;;;;5062022;28;20483;-76
2023/09/02 04:24:12;;;;;;;19.77;18.05;;;13.30;99.90;;;;;;5058425;28;20056;-75
2023/09/02 04:26:38;;;;;;;21.17;19.20;;;13.20;99.90;;;;;;5046057;28;20074;-76
2023/09/02 04:29:04;;;;;;;19.75;18.05;;;13.20;99.90;;;;;;5058663;28;20116;-76
2023/09/02 04:31:30;;;;;;;18.98;17.20;;;13.20;99.90;;;;;;5044337;28;20540;-75
2023/09/02 04:33:56;;;;;;;19.10;17.48;;;13.20;99.90;;;;;;5046370;28;20041;-75
2023/09/02 04:36:23;;;;;;;20.30;18.48;;;13.20;99.90;;;;;;5061931;28;20063;-76
2023/09/02 04:38:51;;;;;;;21.02;19.25;;;13.20;99.90;;;;;;5060889;28;20072;-76
2023/09/02 04:41:17;;;;;;;17.10;15.60;;;13.20;99.90;;;;;;5045646;28;20048;-76
2023/09/02 04:43:43;;;;;;;17.73;16.23;;;13.20;99.90;;;;;;5044347;28;20410;-75
2023/09/02 04:46:09;;;;;;;19.10;17.40;;;13.20;99.90;;;;;;5043789;28;20120;-76
2023/09/02 04:48:35;;;;;;;21.90;19.90;;;13.20;99.90;;;;;;5062147;28;20032;-76
2023/09/02 04:51:03;;;;;;;22.58;20.60;;;13.20;99.90;;;;;;5042954;28;20048;-76
2023/09/02 04:53:29;;;;;;;20.13;18.33;;;13.20;99.90;;;;;;5061499;28;20048;-76
2023/09/02 04:55:55;;;;;;;20.10;18.25;;;13.20;99.90;;;;;;5058749;28;20055;-76
2023/09/02 04:58:23;;;;;;;21.67;19.83;;;13.20;99.90;;;;;;5060870;28;20095;-76
2023/09/02 05:00:49;;;;;;;23.42;21.23;;;13.20;99.90;;;;;;5059846;28;20638;-76
2023/09/02 05:03:14;;;;;;;22.95;20.80;;;13.30;99.90;;;;;;5052199;28;20041;-75
2023/09/02 05:05:41;;;;;;;22.80;20.88;;;13.30;99.90;;;;;;5059066;28;20364;-75
2023/09/02 05:08:06;;;;;;;20.27;18.45;;;13.30;99.90;;;;;;5044259;28;20398;-75
2023/09/02 05:10:32;;;;;;;19.38;17.77;;;13.40;99.90;;;;;;5043869;28;20036;-78
2023/09/02 05:12:58;;;;;;;19.70;17.90;;;13.40;99.90;;;;;;5042493;28;20133;-76
2023/09/02 05:15:24;;;;;;;22.60;20.50;;;13.40;99.90;;;;;;5044538;28;20060;-75
2023/09/02 05:17:50;;;;;;;20.48;18.67;;;13.40;99.90;;;;;;5058151;28;20070;-76
2023/09/02 05:20:16;;;;;;;21.05;19.05;;;13.50;99.90;;;;;;5046361;28;20040;-75
2023/09/02 05:22:42;;;;;;;21.95;19.88;;;13.50;99.90;;;;;;5057668;28;20059;-76
2023/09/02 05:25:08;;;;;;;23.08;20.92;;;13.40;99.90;;;;;;5061558;28;20558;-75
2023/09/02 05:27:36;;;;;;;23.75;21.58;;;13.50;99.90;;;;;;5058409;28;20105;-76
2023/09/02 05:30:03;;;;;;;23.65;21.65;;;13.40;99.90;;;;;;5058784;28;20036;-75
2023/09/02 05:32:29;;;;;;;26.05;23.55;;;13.40;99.90;;;;;;5057790;28;20430;-76
2023/09/02 05:34:55;;;;;;;25.20;22.90;;;13.50;99.90;;;;;;5058330;28;20048;-75
2023/09/02 05:37:20;;;;;;;25.73;23.25;;;13.50;99.90;;;;;;5045623;28;20540;-76
2023/09/02 05:39:46;;;;;;;27.27;24.83;;;13.50;99.90;;;;;;5059963;28;20045;-75
2023/09/02 05:42:12;;;;;;;30.27;27.48;;;13.60;99.90;;;;;;5059479;28;20494;-75
2023/09/02 05:44:38;;;;;;;31.38;28.55;;;13.60;99.90;;;;;;5059014;28;20691;-75
2023/09/02 05:47:03;;;;;;;31.50;28.50;;;13.70;99.90;;;;;;5044884;28;20048;-75
2023/09/02 05:49:29;;;;;;;32.22;29.15;;;13.70;99.90;;;;;;5061473;28;20556;-75
2023/09/02 05:51:56;;;;;;;34.22;30.77;;;13.70;99.90;;;;;;5062492;28;20680;-76
2023/09/02 05:54:22;;;;;;;33.08;30.00;;;13.70;99.90;;;;;;5059745;28;20049;-75
2023/09/02 05:56:47;;;;;;;28.48;25.90;;;13.70;99.90;;;;;;5044203;28;20056;-75
2023/09/02 05:59:13;;;;;;;31.48;28.55;;;13.80;99.90;;;;;;5060565;28;20047;-75
2023/09/02 06:01:40;;;;;;;30.25;27.33;;;13.70;99.90;;;;;;5044570;28;20130;-75
2023/09/02 06:04:06;;;;;;;33.83;30.63;;;13.70;99.90;;;;;;5044932;28;20040;-76
2023/09/02 06:06:32;;;;;;;37.22;33.30;;;13.80;99.90;;;;;;5059544;28;20032;-75
2023/09/02 06:08:57;;;;;;;31.90;28.83;;;13.80;99.90;;;;;;5043453;28;20049;-75
2023/09/02 06:11:23;;;;;;;35.63;32.28;;;13.80;99.90;;;;;;5059095;28;20044;-75
2023/09/02 06:13:49;;;;;;;34.53;31.17;;;13.80;99.90;;;;;;5058893;28;20029;-75
2023/09/02 06:16:16;;;;;;;36.33;32.80;;;13.90;99.90;;;;;;5041126;28;20053;-75
2023/09/02 06:18:42;;;;;;;41.28;36.92;;;13.90;99.90;;;;;;5056773;28;20053;-76
2023/09/02 06:21:09;;;;;;;34.63;31.23;;;13.90;99.90;;;;;;5052035;28;20040;-75
2023/09/02 06:23:35;;;;;;;32.08;28.98;;;14.00;99.90;;;;;;5040780;28;20056;-75
2023/09/02 06:26:01;;;;;;;28.40;25.60;;;14.00;99.90;;;;;;5040803;28;20052;-75
2023/09/02 06:28:28;;;;;;;28.55;25.70;;;14.00;99.90;;;;;;5037517;28;20048;-75
2023/09/02 06:30:54;;;;;;;28.40;25.70;;;14.00;99.90;;;;;;5039555;28;20082;-75
2023/09/02 06:33:22;;;;;;;26.80;24.25;;;14.00;99.90;;;;;;5056392;28;20048;-75
2023/09/02 06:35:51;;;;;;;27.60;25.05;;;13.90;99.90;;;;;;5055279;28;20082;-75
2023/09/02 06:38:17;;;;;;;30.58;27.67;;;13.90;99.90;;;;;;5037807;28;20513;-75
2023/09/02 06:40:43;;;;;;;28.08;25.55;;;14.00;99.90;;;;;;5057785;28;20056;-75
2023/09/02 06:43:09;;;;;;;27.27;24.83;;;14.00;99.90;;;;;;5038846;28;20045;-75
2023/09/02 06:45:35;;;;;;;26.58;24.17;;;14.00;99.90;;;;;;5055083;28;20537;-75
2023/09/02 06:48:01;;;;;;;28.52;25.85;;;14.00;99.90;;;;;;5040889;28;20071;-75
2023/09/02 06:50:33;;;;;;;29.65;26.75;;;14.00;99.90;;;;;;5039798;28;20478;-75
2023/09/02 06:52:59;;;;;;;29.35;26.35;;;14.10;99.90;;;;;;5039016;28;20146;-75
2023/09/02 06:55:24;;;;;;;28.65;25.85;;;14.10;99.90;;;;;;5055765;28;20159;-75
2023/09/02 06:57:50;;;;;;;32.08;28.90;;;14.20;99.90;;;;;;5039806;28;20479;-75
2023/09/02 07:00:16;;;;;;;30.27;27.17;;;14.20;99.90;;;;;;5039225;28;20090;-75
2023/09/02 07:02:42;;;;;;;29.77;26.90;;;14.30;99.90;;;;;;5035057;28;20059;-75
2023/09/02 07:05:08;;;;;;;28.85;26.05;;;14.30;99.90;;;;;;5040281;28;20049;-75
2023/09/02 07:07:36;;;;;;;29.90;26.90;;;14.40;99.90;;;;;;5053305;28;20041;-75
2023/09/02 07:10:03;;;;;;;32.17;28.92;;;14.40;99.90;;;;;;5039445;28;20101;-75
2023/09/02 07:12:29;;;;;;;31.90;28.77;;;14.50;99.90;;;;;;5054946;28;20119;-75
2023/09/02 07:14:54;;;;;;;33.10;30.15;;;14.50;99.90;;;;;;5058032;28;20110;-75
2023/09/02 07:17:20;;;;;;;33.38;30.00;;;14.60;99.90;;;;;;5056318;28;20052;-75
2023/09/02 07:19:46;;;;;;;32.92;29.63;;;14.70;99.90;;;;;;5056819;28;20044;-75
2023/09/02 07:22:12;;;;;;;31.92;28.80;;;14.80;99.90;;;;;;5056430;28;20048;-75
2023/09/02 07:24:38;;;;;;;32.28;29.20;;;14.90;99.90;;;;;;5054610;28;20048;-75
2023/09/02 07:27:04;;;;;;;33.35;30.27;;;15.00;99.90;;;;;;5054399;28;20449;-75
2023/09/02 07:29:30;;;;;;;33.63;30.45;;;15.10;99.90;;;;;;5055856;28;20324;-75
2023/09/02 07:31:58;;;;;;;32.53;29.48;;;15.30;99.90;;;;;;5039318;28;20504;-75
2023/09/02 07:34:24;;;;;;;32.40;29.00;;;15.40;99.90;;;;;;5039203;28;20474;-75
2023/09/02 07:36:50;;;;;;;32.45;29.35;;;15.40;99.90;;;;;;5054136;28;20343;-75
2023/09/02 07:39:16;;;;;;;31.88;28.95;;;15.50;99.90;;;;;;5056523;28;20447;-75
2023/09/02 07:41:43;;;;;;;32.38;29.17;;;15.50;99.90;;;;;;5059354;28;20044;-75
2023/09/02 07:44:11;;;;;;;32.42;29.33;;;15.60;99.90;;;;;;5059521;28;20380;-75
2023/09/02 07:46:37;;;;;;;32.03;28.90;;;15.60;99.90;;;;;;5059521;28;20564;-75
2023/09/02 07:49:03;;;;;;;31.58;28.35;;;15.70;99.90;;;;;;5059049;28;20051;-75
2023/09/02 07:51:28;;;;;;;32.88;29.67;;;15.70;99.90;;;;;;5044281;28;20036;-75
2023/09/02 07:53:54;;;;;;;33.75;30.55;;;15.80;99.90;;;;;;5060235;28;20036;-75
2023/09/02 07:56:22;;;;;;;32.55;29.35;;;15.80;99.90;;;;;;5074923;28;20041;-75
2023/09/02 07:58:49;;;;;;;31.85;28.95;;;15.80;99.90;;;;;;5057891;28;20383;-75
2023/09/02 08:01:15;;;;;;;33.60;30.33;;;15.80;99.90;;;;;;5042059;28;20040;-77
2023/09/02 08:03:41;;;;;;;30.98;27.77;;;15.90;99.90;;;;;;5056500;28;20353;-75
2023/09/02 08:06:08;;;;;;;32.63;29.50;;;15.90;99.90;;;;;;5058663;28;20530;-75
2023/09/02 08:08:34;;;;;;;33.30;30.05;;;16.00;99.90;;;;;;5056959;28;20040;-75
2023/09/02 08:11:05;;;;;;;35.60;32.30;;;16.10;99.90;;;;;;5042370;28;20388;-75
2023/09/02 08:13:30;;;;;;;;;;;16.20;99.90;;;;;;5060692;28;20848;-75
2023/09/02 08:15:57;;;;;;;34.55;31.25;;;16.20;99.90;;;;;;5056241;28;19928;-75
2023/09/02 08:18:22;;;;;;;35.08;31.63;;;16.30;99.90;;;;;;5060495;28;20205;-75
2023/09/02 08:20:48;;;;;;;35.88;32.20;;;16.40;99.90;;;;;;5059528;28;20450;-75
2023/09/02 08:23:14;;;;;;;36.13;32.78;;;16.40;99.90;;;;;;5058767;28;20032;-75
2023/09/02 08:25:40;;;;;;;33.83;30.33;;;16.50;99.90;;;;;;5042137;28;20407;-75
2023/09/02 08:28:06;;;;;;;35.08;31.73;;;16.50;99.90;;;;;;5058522;28;20036;-75
2023/09/02 08:30:32;;;;;;;33.83;30.45;;;16.60;99.90;;;;;;5060014;28;20117;-74
2023/09/02 08:32:57;;;;;;;35.22;31.42;;;16.70;99.90;;;;;;5059824;28;20540;-75
2023/09/02 08:35:23;;;;;;;34.92;31.45;;;16.80;99.90;;;;;;5045576;28;20546;-75
2023/09/02 08:37:51;;;;;;;37.08;33.28;;;17.00;99.90;;;;;;5043604;28;21641;-75
2023/09/02 08:40:17;;;;;;;31.00;28.00;;;17.10;99.90;;;;;;5044498;28;20045;-75
2023/09/02 08:42:43;;;;;;;32.90;29.55;;;17.20;99.90;;;;;;5057973;28;20068;-75
2023/09/02 08:45:11;;;;;;;30.38;27.40;;;17.40;99.90;;;;;;5043565;28;20491;-75
2023/09/02 08:47:39;;;;;;;30.88;28.08;;;17.50;99.90;;;;;;5057790;28;20091;-75
2023/09/02 08:50:08;;;;;;;29.42;26.40;;;17.70;99.90;;;;;;5043270;28;20044;-75
2023/09/02 08:52:35;;;;;;;29.23;26.25;;;17.80;99.90;;;;;;5059069;28;20040;-75
2023/09/02 08:55:02;;;;;;;31.52;27.42;;;17.90;99.90;;;;;;5061037;28;20238;-75
2023/09/02 08:57:28;;;;;;;27.20;24.48;;;18.10;99.90;;;;;;5043045;28;20039;-75
2023/09/02 08:59:54;;;;;;;26.38;23.88;;;18.20;99.90;;;;;;5044158;28;20044;-75
2023/09/02 09:02:20;;;;;;;25.98;23.40;;;18.30;99.90;;;;;;5043020;28;20068;-74
2023/09/02 09:04:50;;;;;;;25.70;22.45;;;18.50;99.90;;;;;;5040608;28;20057;-75
2023/09/02 09:07:16;;;;;;;24.63;22.17;;;18.50;99.90;;;;;;5060771;28;20047;-75
2023/09/02 09:09:43;;;;;;;24.20;21.70;;;18.70;99.90;;;;;;5056501;28;20051;-75
2023/09/02 09:12:09;;;;;;;21.83;19.67;;;18.80;99.90;;;;;;5059405;28;21663;-75
2023/09/02 09:14:40;;;;;;;21.75;19.77;;;18.90;99.90;;;;;;5056452;28;21646;-74
2023/09/02 09:17:07;;;;;;;22.65;20.42;;;19.00;99.90;;;;;;5040028;28;20603;-75
2023/09/02 09:19:33;;;;;;;22.50;19.00;;;19.20;99.90;;;;;;5090188;27;20379;-75
2023/09/02 09:22:02;;;;;;;20.45;18.35;;;19.20;99.90;;;;;;5058188;28;20050;-75
2023/09/02 09:24:28;;;;;;;24.65;20.25;;;19.20;99.90;;;;;;5040668;28;20045;-75
2023/09/02 09:26:57;;;;;;;20.75;18.58;;;19.20;99.90;;;;;;5042837;28;20379;-74
2023/09/02 09:29:23;;;;;;;21.42;19.33;;;19.20;99.90;;;;;;5074705;28;20044;-75
2023/09/02 09:32:05;;;;;;;22.10;19.85;;;19.30;99.90;;;;;;5059885;28;20078;-75
2023/09/02 09:34:39;;;;;;;22.05;19.60;;;19.50;99.90;;;;;;5057830;28;20140;-75
2023/09/02 09:37:06;;;;;;;21.05;18.48;;;19.60;99.90;;;;;;5060839;28;20052;-75
2023/09/02 09:39:46;;;;;;;23.80;21.27;;;19.60;99.90;;;;;;5057884;28;20073;-74
2023/09/02 09:42:14;;;;;;;20.73;18.52;;;19.80;99.90;;;;;;5043387;28;20053;-74
2023/09/02 09:44:56;;;;;;;19.25;17.25;;;19.90;99.90;;;;;;5042821;28;20509;-74
2023/09/02 09:47:24;;;;;;;17.38;15.70;;;20.10;99.90;;;;;;5054904;28;20051;-74
2023/09/02 09:49:50;;;;;;;21.90;18.08;;;20.20;99.90;;;;;;5064208;28;20049;-74
2023/09/02 09:52:18;;;;;;;20.63;18.55;;;20.30;99.90;;;;;;5043043;28;20087;-74
2023/09/02 09:54:47;;;;;;;22.02;19.63;;;20.30;99.90;;;;;;5060924;28;20075;-75
2023/09/02 09:57:37;;;;;;;16.92;15.30;;;20.30;99.90;;;;;;5063118;28;20555;-74
2023/09/02 10:00:05;;;;;;;20.35;17.55;;;20.20;99.90;;;;;;5059675;28;20576;-75
2023/09/02 10:02:31;;;;;;;21.67;17.85;;;20.20;99.90;;;;;;5069661;28;20047;-75
2023/09/02 10:05:02;;;;;;;19.17;17.13;;;20.10;99.90;;;;;;5041752;28;20111;-75
2023/09/02 10:07:32;;;;;;;19.80;17.55;;;20.00;99.90;;;;;;5042761;28;20094;-74
2023/09/02 10:10:00;;;;;;;19.40;17.38;;;19.90;99.90;;;;;;5047279;28;20044;-74
2023/09/02 10:12:27;;;;;;;20.00;17.83;;;19.80;99.90;;;;;;5066083;28;20490;-74
2023/09/02 10:14:53;;;;;;;16.15;14.45;;;19.80;99.90;;;;;;5053035;28;20114;-74
2023/09/02 10:17:19;;;;;;;17.48;15.20;;;19.80;99.90;;;;;;5065724;28;20509;-74
2023/09/02 10:19:45;;;;;;;15.98;14.40;;;19.70;99.90;;;;;;5060974;28;20466;-74
2023/09/02 10:22:19;;;;;;;16.33;14.60;;;19.70;99.90;;;;;;5060526;28;20040;-74
2023/09/02 10:25:07;;;;;;;17.50;15.90;;;19.70;99.90;;;;;;5059883;28;20036;-74
2023/09/02 10:27:40;;;;;;;21.35;18.85;;;19.70;99.90;;;;;;5056509;28;20045;-74
2023/09/02 10:30:22;;;;;;;18.55;16.65;;;19.70;99.90;;;;;;5061710;28;20059;-74
2023/09/02 10:32:59;;;;;;;21.05;18.17;;;19.80;99.90;;;;;;5054758;28;20151;-74
2023/09/02 10:35:30;;;;;;;18.38;16.58;;;19.90;99.90;;;;;;5060483;28;20094;-74
2023/09/02 10:38:02;;;;;;;18.88;16.58;;;20.00;99.90;;;;;;5061159;28;20068;-74
2023/09/02 10:40:35;;;;;;;17.17;15.38;;;20.00;99.90;;;;;;5060986;28;20045;-74
2023/09/02 10:43:02;;;;;;;17.63;15.18;;;19.90;99.90;;;;;;5064204;28;20150;-74
2023/09/02 10:45:28;;;;;;;16.90;15.02;;;19.80;99.90;;;;;;5045542;28;20048;-74
2023/09/02 10:47:54;;;;;;;14.75;13.25;;;19.80;99.90;;;;;;5062222;28;20486;-74
2023/09/02 10:50:21;;;;;;;16.20;14.48;;;19.70;99.90;;;;;;5062399;28;20137;-74
2023/09/02 10:52:49;;;;;;;16.20;14.43;;;19.70;99.90;;;;;;5042919;28;20131;-74
2023/09/02 10:55:16;;;;;;;15.75;14.38;;;19.80;99.90;;;;;;5054365;28;20045;-74
2023/09/02 10:57:46;;;;;;;15.02;13.52;;;20.10;99.90;;;;;;5060234;28;20052;-74
2023/09/02 11:00:25;;;;;;;14.77;13.20;;;20.20;99.90;;;;;;5044248;28;20075;-74
2023/09/02 11:02:53;;;;;;;15.63;13.95;;;20.40;99.90;;;;;;5054491;28;20055;-74
2023/09/02 11:05:27;;;;;;;14.35;13.02;;;20.60;99.90;;;;;;5066758;28;20159;-74
2023/09/02 11:07:54;;;;;;;13.00;11.15;;;20.80;99.90;;;;;;5060345;28;20052;-75
2023/09/02 11:10:20;;;;;;;14.52;11.82;;;20.90;99.90;;;;;;5056791;28;20048;-74
2023/09/02 11:13:04;;;;;;;12.38;9.90;;;21.00;99.90;;;;;;5040257;28;21089;-74
2023/09/02 11:15:31;;;;;;;11.15;10.05;;;21.10;99.90;;;;;;5059395;28;20032;-75
2023/09/02 11:17:57;;;;;;;17.67;13.43;;;21.10;99.90;;;;;;5062160;28;20048;-75
2023/09/02 11:20:25;;;;;;;12.43;11.05;;;21.10;99.90;;;;;;5070037;28;20075;-74
2023/09/02 11:23:06;;;;;;;13.90;10.98;;;21.20;99.90;;;;;;5050949;28;20064;-74
2023/09/02 11:25:41;;;;;;;13.25;11.88;;;21.30;99.90;;;;;;5065312;28;20052;-74
2023/09/02 11:28:13;;;;;;;13.27;11.10;;;21.30;99.90;;;;;;5047681;28;20087;-74
2023/09/02 11:30:39;;;;;;;15.15;12.75;;;21.40;99.90;;;;;;5052815;28;20123;-74
2023/09/02 11:33:07;;;;;;;14.18;12.73;;;21.50;99.90;;;;;;5046024;28;20052;-74
2023/09/02 11:35:37;;;;;;;14.23;12.73;;;21.70;99.90;;;;;;5067514;28;20071;-74
2023/09/02 11:38:16;;;;;;;14.85;13.32;;;21.70;99.90;;;;;;5050919;28;20573;-76
2023/09/02 11:40:42;;;;;;;13.82;12.35;;;21.90;99.90;;;;;;5055035;28;20039;-75
2023/09/02 11:43:08;;;;;;;13.23;11.93;;;22.00;99.90;;;;;;5069494;28;20039;-74
2023/09/02 11:45:38;;;;;;;12.50;11.18;;;22.00;99.90;;;;;;5056520;28;20055;-75
2023/09/02 11:48:06;;;;;;;13.63;11.57;;;21.90;99.90;;;;;;5050355;28;20453;-75
2023/09/02 11:50:32;;;;;;;13.43;11.18;;;22.00;99.90;;;;;;5039840;28;20060;-74
2023/09/02 11:52:58;;;;;;;15.23;12.52;;;22.10;99.90;;;;;;5059583;28;20374;-74
2023/09/02 11:55:25;;;;;;;14.15;12.65;;;22.20;99.90;;;;;;5069572;28;20051;-75
2023/09/02 11:57:54;;;;;;;13.43;11.82;;;22.20;99.90;;;;;;5068347;28;20119;-74
2023/09/02 12:00:22;;;;;;;15.40;12.73;;;22.30;99.90;;;;;;5051034;28;20128;-74
2023/09/02 12:02:55;;;;;;;14.10;12.07;;;22.40;99.90;;;;;;5072122;28;20052;-74
2023/09/02 12:05:20;;;;;;;11.48;10.35;;;22.40;99.90;;;;;;5060798;28;20044;-75
2023/09/02 12:07:47;;;;;;;12.73;11.43;;;22.40;99.90;;;;;;5064455;28;20056;-75
2023/09/02 12:10:15;;;;;;;11.07;9.90;;;22.40;99.90;;;;;;5071699;28;20048;-75
2023/09/02 12:12:43;;;;;;;12.50;10.68;;;22.50;99.90;;;;;;5062921;28;20052;-76
2023/09/02 12:15:17;;;;;;;13.45;10.68;;;22.50;99.90;;;;;;5064756;28;20554;-76
2023/09/02 12:17:45;;;;;;;15.32;11.70;;;22.40;99.90;;;;;;5062294;28;20088;-76
2023/09/02 12:20:16;;;;;;;13.02;11.27;;;22.30;99.90;;;;;;5077740;28;20050;-75
2023/09/02 12:22:43;;;;;;;10.82;8.68;;;22.10;99.90;;;;;;5071485;28;20048;-75
2023/09/02 12:25:27;;;;;;;10.43;7.88;;;22.00;99.90;;;;;;5071140;28;20117;-74
2023/09/02 12:28:12;;;;;;;16.00;10.23;;;22.00;99.90;;;;;;5063925;28;20100;-76
2023/09/02 12:30:39;;;;;;;10.75;8.52;;;22.10;99.90;;;;;;5051456;28;20045;-75